createdAt,value
2023-02-27T00:00:42.996Z,9.20
2023-02-27T00:05:41.380Z,13.00
2023-02-27T00:10:38.021Z,8.80
2023-02-27T00:15:34.549Z,12.38
2023-02-27T00:20:32.322Z,7.38
2023-02-27T00:25:28.754Z,11.30
2023-02-27T00:30:26.461Z,8.77
2023-02-27T00:35:22.936Z,13.80
2023-02-27T00:40:19.638Z,11.00
2023-02-27T00:45:16.117Z,9.90
2023-02-27T00:50:14.391Z,8.20
2023-02-27T00:55:11.161Z,16.52
2023-02-27T01:00:09.186Z,8.50
2023-02-27T01:05:06.459Z,9.55
2023-02-27T01:10:04.053Z,8.15
2023-02-27T01:15:00.489Z,9.32
2023-02-27T01:19:56.943Z,8.88
2023-02-27T01:24:53.325Z,11.30
2023-02-27T01:29:49.779Z,12.77
2023-02-27T01:34:46.171Z,8.60
2023-02-27T01:39:42.690Z,8.10
2023-02-27T01:45:11.032Z,9.05
2023-02-27T01:50:08.513Z,8.13
2023-02-27T01:55:08.568Z,8.52
2023-02-27T02:00:06.130Z,11.85
2023-02-27T02:10:16.128Z,16.52
2023-02-27T02:15:12.785Z,10.00
2023-02-27T02:20:26.910Z,8.80
2023-02-27T02:25:47.430Z,8.93
2023-02-27T02:31:19.504Z,7.68
2023-02-27T02:36:58.798Z,13.07
2023-02-27T02:42:24.151Z,9.68
2023-02-27T02:47:44.169Z,9.27
2023-02-27T02:52:54.727Z,8.95
2023-02-27T02:58:06.688Z,7.22
2023-02-27T03:03:19.097Z,10.40
2023-02-27T03:08:20.918Z,8.73
2023-02-27T03:13:41.931Z,9.90
2023-02-27T03:18:45.508Z,9.57
2023-02-27T03:23:47.435Z,11.80
2023-02-27T03:28:53.906Z,9.10
2023-02-27T03:33:55.756Z,10.32
2023-02-27T03:39:02.770Z,7.43
2023-02-27T03:44:09.214Z,8.55
2023-02-27T03:49:06.539Z,9.02
2023-02-27T03:54:13.677Z,7.78
2023-02-27T03:59:10.270Z,7.72
2023-02-27T04:04:15.620Z,8.18
2023-02-27T04:09:27.062Z,11.70
2023-02-27T04:14:47.402Z,12.55
2023-02-27T04:20:31.880Z,12.60
2023-02-27T04:25:52.827Z,13.38
2023-02-27T04:31:10.127Z,19.08
2023-02-27T04:36:27.047Z,12.02
2023-02-27T04:41:29.177Z,9.35
2023-02-27T04:51:47.472Z,7.80
2023-02-27T04:56:52.582Z,9.43
2023-02-27T05:02:02.927Z,8.95
2023-02-27T05:07:01.844Z,10.55
2023-02-27T05:12:13.884Z,11.40
2023-02-27T05:17:21.947Z,11.20
2023-02-27T05:22:32.680Z,12.50
2023-02-27T05:27:56.772Z,10.18
2023-02-27T05:33:06.803Z,13.88
2023-02-27T05:38:25.326Z,11.52
2023-02-27T05:43:27.580Z,18.35
2023-02-27T05:53:33.293Z,12.00
2023-02-27T05:58:41.604Z,11.02
2023-02-27T06:03:40.154Z,20.05
2023-02-27T06:08:36.587Z,18.25
2023-02-27T06:13:33.015Z,12.57
2023-02-27T06:18:29.456Z,11.15
2023-02-27T06:23:25.829Z,18.13
2023-02-27T06:28:22.239Z,13.75
2023-02-27T06:33:18.667Z,13.18
2023-02-27T06:38:15.226Z,16.98
2023-02-27T06:43:11.655Z,20.15
2023-02-27T06:48:08.570Z,12.88
2023-02-27T06:53:05.125Z,12.63
2023-02-27T06:58:01.677Z,13.40
2023-02-27T07:02:58.091Z,18.30
2023-02-27T07:07:54.470Z,17.95
2023-02-27T07:12:50.947Z,18.88
2023-02-27T07:17:47.418Z,14.55
2023-02-27T07:22:43.804Z,17.95
2023-02-27T07:27:40.240Z,16.42
2023-02-27T07:32:36.691Z,13.63
2023-02-27T07:37:33.117Z,14.50
2023-02-27T07:42:30.003Z,20.38
2023-02-27T07:47:26.629Z,17.00
2023-02-27T07:52:24.185Z,20.45
2023-02-27T07:57:20.593Z,16.92
2023-02-27T08:02:17.002Z,16.90
2023-02-27T08:07:13.442Z,21.13
2023-02-27T08:12:09.830Z,20.15
2023-02-27T08:17:06.260Z,20.58
2023-02-27T08:22:03.504Z,18.50
2023-02-27T08:26:59.923Z,17.58
2023-02-27T08:31:56.400Z,15.95
2023-02-27T08:36:53.608Z,17.85
2023-02-27T08:41:52.402Z,19.20
2023-02-27T08:46:48.847Z,15.63
2023-02-27T08:51:45.269Z,17.05
2023-02-27T08:56:41.677Z,17.58
2023-02-27T09:01:38.093Z,14.50
2023-02-27T09:06:35.968Z,12.52
2023-02-27T09:11:32.862Z,13.65
2023-02-27T09:16:29.775Z,9.63
2023-02-27T09:21:26.510Z,9.60
2023-02-27T09:26:35.730Z,10.77
2023-02-27T09:31:37.299Z,7.72
2023-02-27T09:36:34.202Z,8.15
2023-02-27T09:41:53.164Z,11.88
2023-02-27T09:46:49.999Z,7.65
2023-02-27T09:51:46.952Z,8.45
2023-02-27T09:56:58.621Z,8.18
2023-02-27T10:02:12.758Z,7.85
2023-02-27T10:07:23.316Z,5.60
2023-02-27T10:12:32.254Z,9.48
2023-02-27T10:17:32.098Z,7.68
2023-02-27T10:22:33.539Z,6.38
2023-02-27T10:27:31.224Z,9.52
2023-02-27T10:32:32.625Z,5.85
2023-02-27T10:37:30.284Z,7.53
2023-02-27T10:42:31.317Z,6.82
2023-02-27T10:47:28.092Z,9.73
2023-02-27T10:52:27.438Z,5.78
2023-02-27T10:57:42.083Z,7.05
2023-02-27T11:02:41.958Z,8.27
2023-02-27T11:07:39.090Z,6.10
2023-02-27T11:12:35.528Z,6.07
2023-02-27T11:17:34.396Z,9.75
2023-02-27T11:22:32.268Z,5.53
2023-02-27T11:27:30.399Z,7.90
2023-02-27T11:32:36.627Z,7.47
2023-02-27T11:37:36.994Z,8.27
2023-02-27T11:42:36.005Z,6.78
2023-02-27T11:47:36.013Z,6.50
2023-02-27T11:52:44.336Z,6.25
2023-02-27T11:57:43.706Z,7.25
2023-02-27T12:03:12.305Z,6.45
2023-02-27T12:08:21.887Z,8.73
2023-02-27T12:13:23.038Z,6.50
2023-02-27T12:18:35.611Z,7.90
2023-02-27T12:23:40.297Z,5.40
2023-02-27T12:28:45.695Z,7.38
2023-02-27T12:33:51.479Z,8.35
2023-02-27T12:38:47.852Z,8.55
2023-02-27T12:44:10.422Z,8.15
2023-02-27T12:49:22.019Z,7.03
2023-02-27T12:54:38.950Z,8.45
2023-02-27T12:59:57.002Z,9.30
2023-02-27T13:05:47.883Z,6.07
2023-02-27T13:11:03.193Z,5.60
2023-02-27T13:16:36.529Z,5.97
2023-02-27T13:21:51.377Z,6.63
2023-02-27T13:27:06.825Z,5.07
2023-02-27T13:32:36.524Z,7.47
2023-02-27T13:38:02.154Z,5.38
2023-02-27T13:43:05.939Z,5.35
2023-02-27T13:48:02.321Z,6.00
2023-02-27T13:53:09.762Z,7.65
2023-02-27T13:58:06.532Z,7.70
2023-02-27T14:03:07.364Z,6.35
2023-02-27T14:08:06.793Z,8.60
2023-02-27T14:13:04.345Z,6.03
2023-02-27T14:18:15.651Z,7.00
2023-02-27T14:23:18.496Z,5.90
2023-02-27T14:28:20.929Z,6.25
2023-02-27T14:38:38.206Z,5.28
2023-02-27T14:43:39.779Z,4.70
2023-02-27T14:48:37.832Z,7.93
2023-02-27T14:53:34.728Z,4.72
2023-02-27T14:58:31.149Z,4.45
2023-02-27T15:03:34.503Z,5.75
2023-02-27T15:08:36.623Z,5.90
2023-02-27T15:13:36.502Z,8.73
2023-02-27T15:18:32.865Z,5.00
2023-02-27T15:23:29.402Z,6.35
2023-02-27T15:28:37.123Z,7.68
2023-02-27T15:33:33.965Z,5.72
2023-02-27T15:38:35.881Z,9.77
2023-02-27T15:43:32.714Z,6.93
2023-02-27T15:48:29.960Z,5.25
2023-02-27T15:53:28.877Z,6.85
2023-02-27T15:58:31.062Z,6.10
2023-02-27T16:03:35.504Z,6.90
2023-02-27T16:08:31.959Z,7.97
2023-02-27T16:13:31.552Z,8.55
2023-02-27T16:18:45.689Z,8.43
2023-02-27T16:23:43.028Z,11.95
2023-02-27T16:28:51.047Z,8.40
2023-02-27T16:33:47.564Z,8.45
2023-02-27T16:38:44.803Z,8.95
2023-02-27T16:43:41.810Z,7.95
2023-02-27T16:48:38.229Z,8.65
2023-02-27T16:53:34.607Z,8.05
2023-02-27T16:58:31.033Z,10.25
2023-02-27T17:03:28.008Z,7.35
2023-02-27T17:08:24.395Z,10.45
2023-02-27T17:13:20.774Z,6.88
2023-02-27T17:18:17.153Z,7.38
2023-02-27T17:23:14.503Z,8.75
2023-02-27T17:28:11.682Z,10.88
2023-02-27T17:33:09.195Z,11.18
2023-02-27T17:38:07.420Z,12.45
2023-02-27T17:43:04.192Z,10.50
2023-02-27T17:48:00.610Z,8.65
2023-02-27T17:52:56.976Z,9.93
2023-02-27T17:57:53.396Z,7.50
2023-02-27T18:02:51.025Z,7.00
2023-02-27T18:07:48.022Z,9.32
2023-02-27T18:12:44.830Z,7.35
2023-02-27T18:17:43.410Z,7.35
2023-02-27T18:22:39.779Z,8.27
2023-02-27T18:27:36.337Z,7.97
2023-02-27T18:32:32.717Z,7.88
2023-02-27T18:37:29.082Z,9.55
2023-02-27T18:42:25.601Z,11.07
2023-02-27T18:47:21.978Z,9.25
2023-02-27T18:52:18.539Z,8.95
2023-02-27T18:57:15.343Z,8.80
2023-02-27T19:02:14.663Z,6.28
2023-02-27T19:07:11.615Z,8.32
2023-02-27T19:12:10.595Z,7.63
2023-02-27T19:17:07.283Z,8.38
2023-02-27T19:22:03.745Z,10.82
2023-02-27T19:27:00.197Z,7.60
2023-02-27T19:31:56.599Z,10.82
2023-02-27T19:36:53.055Z,6.28
2023-02-27T19:41:49.479Z,9.27
2023-02-27T19:46:51.063Z,8.50
2023-02-27T19:51:47.525Z,10.50
2023-02-27T19:56:43.902Z,8.80
2023-02-27T20:01:41.399Z,9.55
2023-02-27T20:06:41.552Z,8.68
2023-02-27T20:11:38.015Z,8.77
2023-02-27T20:16:36.638Z,9.43
2023-02-27T20:21:34.194Z,10.10
2023-02-27T20:26:37.032Z,10.00
2023-02-27T20:31:35.658Z,9.13
2023-02-27T20:36:35.648Z,7.50
2023-02-27T20:41:34.478Z,9.93
2023-02-27T20:46:31.424Z,8.75
2023-02-27T20:51:36.648Z,10.02
2023-02-27T20:56:35.206Z,11.77
2023-02-27T21:01:32.210Z,8.77
2023-02-27T21:06:30.375Z,8.80
2023-02-27T21:11:29.685Z,8.13
2023-02-27T21:16:26.373Z,8.07
2023-02-27T21:21:25.592Z,7.18
2023-02-27T21:26:26.231Z,6.63
2023-02-27T21:31:24.992Z,7.25
2023-02-27T21:36:29.507Z,6.60
2023-02-27T21:41:26.787Z,7.32
2023-02-27T21:46:23.310Z,11.15
2023-02-27T21:51:36.816Z,8.90
2023-02-27T21:56:35.518Z,8.05
2023-02-27T22:01:33.447Z,10.95
2023-02-27T22:06:32.160Z,6.35
2023-02-27T22:11:29.793Z,8.00
2023-02-27T22:16:27.630Z,10.65
2023-02-27T22:21:25.977Z,9.10
2023-02-27T22:26:25.759Z,6.50
2023-02-27T22:31:24.618Z,9.85
2023-02-27T22:36:25.303Z,10.13
2023-02-27T22:41:29.156Z,9.82
2023-02-27T22:46:28.587Z,8.35
2023-02-27T22:51:27.704Z,8.43
2023-02-27T22:56:24.789Z,10.65
2023-02-27T23:01:24.041Z,7.32
2023-02-27T23:06:28.874Z,8.15
2023-02-27T23:11:25.373Z,6.70
2023-02-27T23:16:21.849Z,9.07
2023-02-27T23:21:20.650Z,8.45
2023-02-27T23:26:17.060Z,6.95
2023-02-27T23:31:15.210Z,6.15
2023-02-27T23:36:11.877Z,6.65
2023-02-27T23:41:09.885Z,13.02
2023-02-27T23:46:08.745Z,8.00
2023-02-27T23:51:06.341Z,9.05
2023-02-27T23:56:12.707Z,7.53
